sensor_id;sensor_type;location;lat;lon;timestamp;P1;durP1;ratioP1;P2;durP2;ratioP2
69534;SDS011;56754;51.568;5.048;2023-03-23T00:00:51;4.20;;;1.10;;
69534;SDS011;56754;51.568;5.048;2023-03-23T00:03:16;2.70;;;0.90;;
69534;SDS011;56754;51.568;5.048;2023-03-23T00:05:41;4.37;;;1.17;;
69534;SDS011;56754;51.568;5.048;2023-03-23T00:08:07;4.40;;;1.20;;
69534;SDS011;56754;51.568;5.048;2023-03-23T00:10:34;3.93;;;0.90;;
69534;SDS011;56754;51.568;5.048;2023-03-23T00:13:00;2.90;;;0.80;;
69534;SDS011;56754;51.568;5.048;2023-03-23T00:15:25;4.07;;;1.20;;
69534;SDS011;56754;51.568;5.048;2023-03-23T00:17:50;3.90;;;1.23;;
69534;SDS011;56754;51.568;5.048;2023-03-23T00:20:16;3.97;;;0.90;;
69534;SDS011;56754;51.568;5.048;2023-03-23T00:22:41;3.10;;;1.00;;
69534;SDS011;56754;51.568;5.048;2023-03-23T00:25:07;2.87;;;0.90;;
69534;SDS011;56754;51.568;5.048;2023-03-23T00:27:32;6.60;;;1.42;;
69534;SDS011;56754;51.568;5.048;2023-03-23T00:29:58;3.50;;;1.10;;
69534;SDS011;56754;51.568;5.048;2023-03-23T00:32:24;4.47;;;1.17;;
69534;SDS011;56754;51.568;5.048;2023-03-23T00:34:49;3.40;;;1.25;;
69534;SDS011;56754;51.568;5.048;2023-03-23T00:37:15;5.03;;;1.13;;
69534;SDS011;56754;51.568;5.048;2023-03-23T00:39:40;3.50;;;1.10;;
69534;SDS011;56754;51.568;5.048;2023-03-23T00:42:05;4.40;;;1.30;;
69534;SDS011;56754;51.568;5.048;2023-03-23T00:44:32;4.73;;;1.30;;
69534;SDS011;56754;51.568;5.048;2023-03-23T00:46:58;3.92;;;1.20;;
69534;SDS011;56754;51.568;5.048;2023-03-23T00:49:24;4.33;;;1.33;;
69534;SDS011;56754;51.568;5.048;2023-03-23T00:51:50;4.00;;;1.20;;
69534;SDS011;56754;51.568;5.048;2023-03-23T00:54:20;2.90;;;0.90;;
69534;SDS011;56754;51.568;5.048;2023-03-23T00:56:45;3.55;;;1.25;;
69534;SDS011;56754;51.568;5.048;2023-03-23T00:59:11;3.60;;;1.10;;
69534;SDS011;56754;51.568;5.048;2023-03-23T01:01:36;4.70;;;1.50;;
69534;SDS011;56754;51.568;5.048;2023-03-23T01:04:02;3.78;;;1.15;;
69534;SDS011;56754;51.568;5.048;2023-03-23T01:06:28;3.77;;;1.20;;
69534;SDS011;56754;51.568;5.048;2023-03-23T01:08:53;4.37;;;1.40;;
69534;SDS011;56754;51.568;5.048;2023-03-23T01:11:19;3.47;;;1.10;;
69534;SDS011;56754;51.568;5.048;2023-03-23T01:13:44;4.23;;;1.20;;
69534;SDS011;56754;51.568;5.048;2023-03-23T01:16:10;4.80;;;1.17;;
69534;SDS011;56754;51.568;5.048;2023-03-23T01:18:36;3.20;;;0.98;;
69534;SDS011;56754;51.568;5.048;2023-03-23T01:21:06;3.78;;;1.30;;
69534;SDS011;56754;51.568;5.048;2023-03-23T01:23:33;4.50;;;1.52;;
69534;SDS011;56754;51.568;5.048;2023-03-23T01:26:06;4.57;;;1.60;;
69534;SDS011;56754;51.568;5.048;2023-03-23T01:28:33;4.20;;;1.27;;
69534;SDS011;56754;51.568;5.048;2023-03-23T01:31:00;4.75;;;1.48;;
69534;SDS011;56754;51.568;5.048;2023-03-23T01:33:30;3.40;;;1.30;;
69534;SDS011;56754;51.568;5.048;2023-03-23T01:35:56;3.22;;;1.00;;
69534;SDS011;56754;51.568;5.048;2023-03-23T01:38:22;3.73;;;1.40;;
69534;SDS011;56754;51.568;5.048;2023-03-23T01:40:47;2.67;;;1.10;;
69534;SDS011;56754;51.568;5.048;2023-03-23T01:43:13;3.33;;;1.27;;
69534;SDS011;56754;51.568;5.048;2023-03-23T01:45:40;3.75;;;1.20;;
69534;SDS011;56754;51.568;5.048;2023-03-23T01:48:09;3.88;;;1.50;;
69534;SDS011;56754;51.568;5.048;2023-03-23T01:50:52;3.87;;;1.30;;
69534;SDS011;56754;51.568;5.048;2023-03-23T01:53:19;5.03;;;1.45;;
69534;SDS011;56754;51.568;5.048;2023-03-23T01:55:46;4.30;;;1.30;;
69534;SDS011;56754;51.568;5.048;2023-03-23T01:58:14;3.42;;;1.40;;
69534;SDS011;56754;51.568;5.048;2023-03-23T02:00:40;5.65;;;1.80;;
69534;SDS011;56754;51.568;5.048;2023-03-23T02:03:06;3.17;;;1.27;;
69534;SDS011;56754;51.568;5.048;2023-03-23T02:05:39;3.15;;;1.05;;
69534;SDS011;56754;51.568;5.048;2023-03-23T02:08:06;3.57;;;1.20;;
69534;SDS011;56754;51.568;5.048;2023-03-23T02:10:33;4.15;;;1.20;;
69534;SDS011;56754;51.568;5.048;2023-03-23T02:12:59;4.40;;;1.40;;
69534;SDS011;56754;51.568;5.048;2023-03-23T02:15:27;2.83;;;1.02;;
69534;SDS011;56754;51.568;5.048;2023-03-23T02:18:04;4.53;;;1.23;;
69534;SDS011;56754;51.568;5.048;2023-03-23T02:20:48;5.05;;;1.60;;
69534;SDS011;56754;51.568;5.048;2023-03-23T02:37:57;5.75;;;1.63;;
69534;SDS011;56754;51.568;5.048;2023-03-23T02:40:28;5.90;;;1.40;;
69534;SDS011;56754;51.568;5.048;2023-03-23T02:43:00;3.10;;;0.85;;
69534;SDS011;56754;51.568;5.048;2023-03-23T02:45:28;4.07;;;1.30;;
69534;SDS011;56754;51.568;5.048;2023-03-23T02:47:55;4.15;;;1.40;;
69534;SDS011;56754;51.568;5.048;2023-03-23T02:50:22;4.32;;;1.30;;
69534;SDS011;56754;51.568;5.048;2023-03-23T02:52:52;4.07;;;1.50;;
69534;SDS011;56754;51.568;5.048;2023-03-23T02:55:19;2.85;;;1.00;;
69534;SDS011;56754;51.568;5.048;2023-03-23T02:57:46;3.53;;;1.20;;
69534;SDS011;56754;51.568;5.048;2023-03-23T03:00:14;5.30;;;1.35;;
69534;SDS011;56754;51.568;5.048;2023-03-23T03:02:41;4.05;;;1.20;;
69534;SDS011;56754;51.568;5.048;2023-03-23T03:07:48;4.03;;;1.30;;
69534;SDS011;56754;51.568;5.048;2023-03-23T03:13:21;3.90;;;1.10;;
69534;SDS011;56754;51.568;5.048;2023-03-23T03:21:12;3.92;;;1.48;;
69534;SDS011;56754;51.568;5.048;2023-03-23T03:23:41;3.47;;;1.13;;
69534;SDS011;56754;51.568;5.048;2023-03-23T03:26:10;3.25;;;1.10;;
69534;SDS011;56754;51.568;5.048;2023-03-23T03:28:37;3.65;;;1.00;;
69534;SDS011;56754;51.568;5.048;2023-03-23T03:31:04;3.10;;;1.00;;
69534;SDS011;56754;51.568;5.048;2023-03-23T03:33:31;4.15;;;1.30;;
69534;SDS011;56754;51.568;5.048;2023-03-23T03:35:58;4.15;;;1.02;;
69534;SDS011;56754;51.568;5.048;2023-03-23T03:38:26;4.85;;;1.30;;
69534;SDS011;56754;51.568;5.048;2023-03-23T03:40:51;3.53;;;1.08;;
69534;SDS011;56754;51.568;5.048;2023-03-23T03:43:18;3.80;;;1.07;;
69534;SDS011;56754;51.568;5.048;2023-03-23T03:45:43;3.83;;;1.00;;
69534;SDS011;56754;51.568;5.048;2023-03-23T03:48:09;5.67;;;1.07;;
69534;SDS011;56754;51.568;5.048;2023-03-23T03:50:34;4.80;;;1.07;;
69534;SDS011;56754;51.568;5.048;2023-03-23T03:52:59;4.70;;;1.00;;
69534;SDS011;56754;51.568;5.048;2023-03-23T03:55:25;4.23;;;1.20;;
69534;SDS011;56754;51.568;5.048;2023-03-23T03:57:50;5.32;;;0.90;;
69534;SDS011;56754;51.568;5.048;2023-03-23T04:00:16;4.40;;;1.00;;
69534;SDS011;56754;51.568;5.048;2023-03-23T04:02:42;4.32;;;1.00;;
69534;SDS011;56754;51.568;5.048;2023-03-23T04:05:09;2.70;;;0.77;;
69534;SDS011;56754;51.568;5.048;2023-03-23T04:07:36;5.55;;;1.20;;
69534;SDS011;56754;51.568;5.048;2023-03-23T04:10:01;6.82;;;1.05;;
69534;SDS011;56754;51.568;5.048;2023-03-23T04:12:27;4.67;;;0.90;;
69534;SDS011;56754;51.568;5.048;2023-03-23T04:14:52;5.43;;;1.00;;
69534;SDS011;56754;51.568;5.048;2023-03-23T04:17:17;3.73;;;0.60;;
69534;SDS011;56754;51.568;5.048;2023-03-23T04:19:42;5.67;;;1.00;;
69534;SDS011;56754;51.568;5.048;2023-03-23T04:22:08;6.37;;;0.90;;
69534;SDS011;56754;51.568;5.048;2023-03-23T04:24:33;4.35;;;0.90;;
69534;SDS011;56754;51.568;5.048;2023-03-23T04:26:59;4.63;;;0.80;;
69534;SDS011;56754;51.568;5.048;2023-03-23T04:29:25;4.63;;;0.60;;
69534;SDS011;56754;51.568;5.048;2023-03-23T04:31:50;4.57;;;0.90;;
69534;SDS011;56754;51.568;5.048;2023-03-23T04:34:16;5.90;;;0.90;;
69534;SDS011;56754;51.568;5.048;2023-03-23T04:36:41;4.73;;;0.67;;
69534;SDS011;56754;51.568;5.048;2023-03-23T04:39:07;3.63;;;0.70;;
69534;SDS011;56754;51.568;5.048;2023-03-23T04:41:32;3.13;;;0.60;;
69534;SDS011;56754;51.568;5.048;2023-03-23T04:43:57;4.97;;;0.80;;
69534;SDS011;56754;51.568;5.048;2023-03-23T04:46:25;5.83;;;0.80;;
69534;SDS011;56754;51.568;5.048;2023-03-23T04:48:50;6.50;;;0.93;;
69534;SDS011;56754;51.568;5.048;2023-03-23T04:51:16;4.93;;;0.70;;
69534;SDS011;56754;51.568;5.048;2023-03-23T04:53:41;2.20;;;0.50;;
69534;SDS011;56754;51.568;5.048;2023-03-23T04:56:06;4.20;;;0.50;;
69534;SDS011;56754;51.568;5.048;2023-03-23T04:58:32;3.53;;;0.60;;
69534;SDS011;56754;51.568;5.048;2023-03-23T05:00:58;2.83;;;0.60;;
69534;SDS011;56754;51.568;5.048;2023-03-23T05:03:23;3.53;;;0.60;;
69534;SDS011;56754;51.568;5.048;2023-03-23T05:05:48;5.47;;;0.73;;
69534;SDS011;56754;51.568;5.048;2023-03-23T05:08:13;5.13;;;0.60;;
69534;SDS011;56754;51.568;5.048;2023-03-23T05:10:39;3.70;;;0.60;;
69534;SDS011;56754;51.568;5.048;2023-03-23T05:13:04;3.20;;;0.60;;
69534;SDS011;56754;51.568;5.048;2023-03-23T05:15:30;4.60;;;0.80;;
69534;SDS011;56754;51.568;5.048;2023-03-23T05:17:55;4.13;;;0.67;;
69534;SDS011;56754;51.568;5.048;2023-03-23T05:20:20;5.00;;;0.70;;
69534;SDS011;56754;51.568;5.048;2023-03-23T05:22:46;3.77;;;0.70;;
69534;SDS011;56754;51.568;5.048;2023-03-23T05:25:12;4.28;;;0.80;;
69534;SDS011;56754;51.568;5.048;2023-03-23T05:27:37;5.07;;;0.80;;
69534;SDS011;56754;51.568;5.048;2023-03-23T05:30:03;4.43;;;0.70;;
69534;SDS011;56754;51.568;5.048;2023-03-23T05:32:30;6.32;;;1.13;;
69534;SDS011;56754;51.568;5.048;2023-03-23T05:34:55;3.13;;;0.50;;
69534;SDS011;56754;51.568;5.048;2023-03-23T05:37:25;2.67;;;0.50;;
69534;SDS011;56754;51.568;5.048;2023-03-23T05:39:52;4.03;;;0.73;;
69534;SDS011;56754;51.568;5.048;2023-03-23T05:42:18;3.10;;;0.67;;
69534;SDS011;56754;51.568;5.048;2023-03-23T05:44:43;3.38;;;0.47;;
69534;SDS011;56754;51.568;5.048;2023-03-23T05:47:09;4.03;;;0.80;;
69534;SDS011;56754;51.568;5.048;2023-03-23T05:49:34;3.53;;;0.70;;
69534;SDS011;56754;51.568;5.048;2023-03-23T05:51:59;7.17;;;0.90;;
69534;SDS011;56754;51.568;5.048;2023-03-23T05:54:25;5.17;;;0.80;;
69534;SDS011;56754;51.568;5.048;2023-03-23T05:56:50;4.28;;;0.70;;
69534;SDS011;56754;51.568;5.048;2023-03-23T05:59:15;4.37;;;0.73;;
69534;SDS011;56754;51.568;5.048;2023-03-23T06:01:40;5.50;;;0.90;;
69534;SDS011;56754;51.568;5.048;2023-03-23T06:04:06;6.30;;;0.80;;
69534;SDS011;56754;51.568;5.048;2023-03-23T06:06:31;6.87;;;0.80;;
69534;SDS011;56754;51.568;5.048;2023-03-23T06:08:56;4.83;;;0.63;;
69534;SDS011;56754;51.568;5.048;2023-03-23T06:11:22;6.83;;;0.80;;
69534;SDS011;56754;51.568;5.048;2023-03-23T06:13:48;5.60;;;0.80;;
69534;SDS011;56754;51.568;5.048;2023-03-23T06:16:13;3.40;;;0.60;;
69534;SDS011;56754;51.568;5.048;2023-03-23T06:18:39;5.72;;;1.02;;
69534;SDS011;56754;51.568;5.048;2023-03-23T06:21:05;5.87;;;0.80;;
69534;SDS011;56754;51.568;5.048;2023-03-23T06:23:30;5.93;;;0.60;;
69534;SDS011;56754;51.568;5.048;2023-03-23T06:25:59;5.30;;;0.83;;
69534;SDS011;56754;51.568;5.048;2023-03-23T06:28:27;6.68;;;0.77;;
69534;SDS011;56754;51.568;5.048;2023-03-23T06:30:53;7.77;;;1.10;;
69534;SDS011;56754;51.568;5.048;2023-03-23T06:33:19;8.18;;;1.05;;
69534;SDS011;56754;51.568;5.048;2023-03-23T06:35:44;6.80;;;1.00;;
69534;SDS011;56754;51.568;5.048;2023-03-23T06:38:10;6.78;;;0.93;;
69534;SDS011;56754;51.568;5.048;2023-03-23T06:40:35;6.73;;;1.10;;
69534;SDS011;56754;51.568;5.048;2023-03-23T06:43:00;7.83;;;1.73;;
69534;SDS011;56754;51.568;5.048;2023-03-23T06:45:26;5.13;;;0.80;;
69534;SDS011;56754;51.568;5.048;2023-03-23T06:47:51;6.10;;;0.70;;
69534;SDS011;56754;51.568;5.048;2023-03-23T06:50:16;4.97;;;0.70;;
69534;SDS011;56754;51.568;5.048;2023-03-23T06:52:44;4.73;;;0.90;;
69534;SDS011;56754;51.568;5.048;2023-03-23T06:55:11;5.82;;;0.70;;
69534;SDS011;56754;51.568;5.048;2023-03-23T06:57:36;5.37;;;0.73;;
69534;SDS011;56754;51.568;5.048;2023-03-23T07:00:02;4.03;;;0.70;;
69534;SDS011;56754;51.568;5.048;2023-03-23T07:02:27;4.95;;;0.70;;
69534;SDS011;56754;51.568;5.048;2023-03-23T07:04:53;6.10;;;1.10;;
69534;SDS011;56754;51.568;5.048;2023-03-23T07:07:18;5.17;;;0.80;;
69534;SDS011;56754;51.568;5.048;2023-03-23T07:09:44;5.43;;;0.77;;
69534;SDS011;56754;51.568;5.048;2023-03-23T07:12:09;3.70;;;0.60;;
69534;SDS011;56754;51.568;5.048;2023-03-23T07:14:35;6.93;;;0.90;;
69534;SDS011;56754;51.568;5.048;2023-03-23T07:17:01;4.23;;;0.70;;
69534;SDS011;56754;51.568;5.048;2023-03-23T07:19:27;4.40;;;0.68;;
69534;SDS011;56754;51.568;5.048;2023-03-23T07:21:53;4.30;;;0.73;;
69534;SDS011;56754;51.568;5.048;2023-03-23T07:24:18;5.17;;;0.60;;
69534;SDS011;56754;51.568;5.048;2023-03-23T07:26:43;3.80;;;0.60;;
69534;SDS011;56754;51.568;5.048;2023-03-23T07:29:09;2.80;;;0.40;;
69534;SDS011;56754;51.568;5.048;2023-03-23T07:31:34;4.27;;;0.57;;
69534;SDS011;56754;51.568;5.048;2023-03-23T07:34:00;3.60;;;0.55;;
69534;SDS011;56754;51.568;5.048;2023-03-23T07:36:26;4.10;;;0.40;;
69534;SDS011;56754;51.568;5.048;2023-03-23T07:38:52;3.17;;;0.65;;
69534;SDS011;56754;51.568;5.048;2023-03-23T07:41:18;3.70;;;0.60;;
69534;SDS011;56754;51.568;5.048;2023-03-23T07:43:44;3.10;;;0.30;;
69534;SDS011;56754;51.568;5.048;2023-03-23T07:46:10;3.78;;;0.52;;
69534;SDS011;56754;51.568;5.048;2023-03-23T07:48:35;3.23;;;0.50;;
69534;SDS011;56754;51.568;5.048;2023-03-23T07:51:00;3.13;;;0.40;;
69534;SDS011;56754;51.568;5.048;2023-03-23T07:53:26;2.33;;;0.40;;
69534;SDS011;56754;51.568;5.048;2023-03-23T07:55:51;3.20;;;0.40;;
69534;SDS011;56754;51.568;5.048;2023-03-23T07:58:18;3.78;;;0.40;;
69534;SDS011;56754;51.568;5.048;2023-03-23T08:00:44;3.70;;;0.40;;
69534;SDS011;56754;51.568;5.048;2023-03-23T08:03:10;3.25;;;0.50;;
69534;SDS011;56754;51.568;5.048;2023-03-23T08:05:36;3.13;;;0.43;;
69534;SDS011;56754;51.568;5.048;2023-03-23T08:08:01;2.53;;;0.30;;
69534;SDS011;56754;51.568;5.048;2023-03-23T08:10:26;2.58;;;0.35;;
69534;SDS011;56754;51.568;5.048;2023-03-23T08:12:53;2.13;;;0.47;;
69534;SDS011;56754;51.568;5.048;2023-03-23T08:15:20;4.00;;;0.50;;
69534;SDS011;56754;51.568;5.048;2023-03-23T08:17:46;3.15;;;0.43;;
69534;SDS011;56754;51.568;5.048;2023-03-23T08:20:11;1.80;;;0.40;;
69534;SDS011;56754;51.568;5.048;2023-03-23T08:22:37;2.20;;;0.30;;
69534;SDS011;56754;51.568;5.048;2023-03-23T08:25:07;2.28;;;0.20;;
69534;SDS011;56754;51.568;5.048;2023-03-23T08:27:34;2.00;;;0.50;;
69534;SDS011;56754;51.568;5.048;2023-03-23T08:29:59;2.73;;;0.20;;
69534;SDS011;56754;51.568;5.048;2023-03-23T08:32:25;2.70;;;0.40;;
69534;SDS011;56754;51.568;5.048;2023-03-23T08:34:50;2.63;;;0.30;;
69534;SDS011;56754;51.568;5.048;2023-03-23T08:37:16;3.13;;;0.52;;
69534;SDS011;56754;51.568;5.048;2023-03-23T08:39:41;4.63;;;0.83;;
69534;SDS011;56754;51.568;5.048;2023-03-23T08:42:07;3.00;;;0.40;;
69534;SDS011;56754;51.568;5.048;2023-03-23T08:44:32;2.60;;;0.30;;
69534;SDS011;56754;51.568;5.048;2023-03-23T08:46:57;3.03;;;0.40;;
69534;SDS011;56754;51.568;5.048;2023-03-23T08:49:23;4.47;;;0.50;;
69534;SDS011;56754;51.568;5.048;2023-03-23T08:51:49;2.95;;;0.57;;
69534;SDS011;56754;51.568;5.048;2023-03-23T08:54:14;1.90;;;0.40;;
69534;SDS011;56754;51.568;5.048;2023-03-23T08:56:39;3.90;;;0.50;;
69534;SDS011;56754;51.568;5.048;2023-03-23T08:59:05;3.17;;;0.50;;
69534;SDS011;56754;51.568;5.048;2023-03-23T09:01:30;2.90;;;0.43;;
69534;SDS011;56754;51.568;5.048;2023-03-23T09:03:56;2.63;;;0.40;;
69534;SDS011;56754;51.568;5.048;2023-03-23T09:06:21;3.10;;;0.43;;
69534;SDS011;56754;51.568;5.048;2023-03-23T09:08:46;2.80;;;0.50;;
69534;SDS011;56754;51.568;5.048;2023-03-23T09:11:12;3.73;;;0.40;;
69534;SDS011;56754;51.568;5.048;2023-03-23T09:13:37;3.13;;;0.50;;
69534;SDS011;56754;51.568;5.048;2023-03-23T09:16:04;2.70;;;0.50;;
69534;SDS011;56754;51.568;5.048;2023-03-23T09:18:31;2.92;;;0.47;;
69534;SDS011;56754;51.568;5.048;2023-03-23T09:20:57;1.85;;;0.40;;
69534;SDS011;56754;51.568;5.048;2023-03-23T09:23:22;2.67;;;0.40;;
69534;SDS011;56754;51.568;5.048;2023-03-23T09:25:47;2.90;;;0.57;;
69534;SDS011;56754;51.568;5.048;2023-03-23T09:28:13;2.43;;;0.40;;
69534;SDS011;56754;51.568;5.048;2023-03-23T09:30:38;5.28;;;0.60;;
69534;SDS011;56754;51.568;5.048;2023-03-23T09:33:05;3.17;;;0.40;;
69534;SDS011;56754;51.568;5.048;2023-03-23T09:35:31;5.10;;;0.73;;
69534;SDS011;56754;51.568;5.048;2023-03-23T09:37:57;3.85;;;0.50;;
69534;SDS011;56754;51.568;5.048;2023-03-23T09:40:24;5.97;;;0.67;;
69534;SDS011;56754;51.568;5.048;2023-03-23T09:53:54;4.40;;;0.65;;
69534;SDS011;56754;51.568;5.048;2023-03-23T09:56:24;4.68;;;0.50;;
69534;SDS011;56754;51.568;5.048;2023-03-23T09:58:53;5.32;;;0.70;;
69534;SDS011;56754;51.568;5.048;2023-03-23T10:01:30;5.18;;;0.77;;
69534;SDS011;56754;51.568;5.048;2023-03-23T10:04:05;4.43;;;0.70;;
69534;SDS011;56754;51.568;5.048;2023-03-23T10:06:38;5.13;;;0.60;;
69534;SDS011;56754;51.568;5.048;2023-03-23T10:09:04;6.23;;;1.10;;
69534;SDS011;56754;51.568;5.048;2023-03-23T10:11:33;3.17;;;0.55;;
69534;SDS011;56754;51.568;5.048;2023-03-23T10:14:38;5.10;;;0.90;;
69534;SDS011;56754;51.568;5.048;2023-03-23T10:17:16;6.40;;;1.02;;
69534;SDS011;56754;51.568;5.048;2023-03-23T10:22:34;2.87;;;0.80;;
69534;SDS011;56754;51.568;5.048;2023-03-23T10:30:27;5.93;;;1.00;;
69534;SDS011;56754;51.568;5.048;2023-03-23T10:32:58;5.22;;;1.20;;
69534;SDS011;56754;51.568;5.048;2023-03-23T10:35:33;5.57;;;1.30;;
69534;SDS011;56754;51.568;5.048;2023-03-23T10:38:14;5.68;;;1.10;;
69534;SDS011;56754;51.568;5.048;2023-03-23T10:40:54;5.50;;;1.10;;
69534;SDS011;56754;51.568;5.048;2023-03-23T10:43:25;5.15;;;1.10;;
69534;SDS011;56754;51.568;5.048;2023-03-23T10:45:54;6.27;;;1.23;;
69534;SDS011;56754;51.568;5.048;2023-03-23T10:48:28;5.18;;;1.10;;
69534;SDS011;56754;51.568;5.048;2023-03-23T10:50:55;6.35;;;0.90;;
69534;SDS011;56754;51.568;5.048;2023-03-23T10:53:25;5.28;;;1.00;;
69534;SDS011;56754;51.568;5.048;2023-03-23T10:55:55;5.20;;;1.23;;
69534;SDS011;56754;51.568;5.048;2023-03-23T10:58:28;5.30;;;0.90;;
69534;SDS011;56754;51.568;5.048;2023-03-23T11:00:55;7.00;;;1.00;;
69534;SDS011;56754;51.568;5.048;2023-03-23T11:03:25;5.88;;;1.00;;
69534;SDS011;56754;51.568;5.048;2023-03-23T11:06:03;4.97;;;1.00;;
69534;SDS011;56754;51.568;5.048;2023-03-23T11:08:38;5.47;;;0.95;;
69534;SDS011;56754;51.568;5.048;2023-03-23T11:11:24;4.65;;;0.70;;
69534;SDS011;56754;51.568;5.048;2023-03-23T11:13:56;3.70;;;0.63;;
69534;SDS011;56754;51.568;5.048;2023-03-23T11:16:27;4.90;;;0.90;;
69534;SDS011;56754;51.568;5.048;2023-03-23T11:18:54;4.72;;;0.77;;
69534;SDS011;56754;51.568;5.048;2023-03-23T11:21:21;5.23;;;0.90;;
69534;SDS011;56754;51.568;5.048;2023-03-23T11:23:52;5.28;;;0.80;;
69534;SDS011;56754;51.568;5.048;2023-03-23T11:26:24;6.20;;;0.90;;
69534;SDS011;56754;51.568;5.048;2023-03-23T11:31:45;5.07;;;0.63;;
69534;SDS011;56754;51.568;5.048;2023-03-23T11:34:18;5.13;;;0.97;;
69534;SDS011;56754;51.568;5.048;2023-03-23T11:39:31;4.47;;;0.80;;
69534;SDS011;56754;51.568;5.048;2023-03-23T11:42:00;4.00;;;0.70;;
69534;SDS011;56754;51.568;5.048;2023-03-23T11:44:41;5.78;;;0.95;;
69534;SDS011;56754;51.568;5.048;2023-03-23T11:49:55;5.18;;;0.77;;
69534;SDS011;56754;51.568;5.048;2023-03-23T11:55:22;3.75;;;0.90;;
69534;SDS011;56754;51.568;5.048;2023-03-23T11:57:52;4.45;;;0.93;;
69534;SDS011;56754;51.568;5.048;2023-03-23T12:00:21;4.10;;;0.90;;
69534;SDS011;56754;51.568;5.048;2023-03-23T12:02:51;4.38;;;0.88;;
69534;SDS011;56754;51.568;5.048;2023-03-23T12:15:30;4.57;;;1.23;;
69534;SDS011;56754;51.568;5.048;2023-03-23T12:18:31;5.43;;;1.00;;
69534;SDS011;56754;51.568;5.048;2023-03-23T12:24:00;4.25;;;0.80;;
69534;SDS011;56754;51.568;5.048;2023-03-23T12:27:09;6.82;;;1.45;;
69534;SDS011;56754;51.568;5.048;2023-03-23T12:46:32;6.00;;;1.15;;
69534;SDS011;56754;51.568;5.048;2023-03-23T12:54:23;5.10;;;1.20;;
69534;SDS011;56754;51.568;5.048;2023-03-23T13:02:33;7.65;;;1.83;;
69534;SDS011;56754;51.568;5.048;2023-03-23T13:05:03;5.22;;;0.98;;
69534;SDS011;56754;51.568;5.048;2023-03-23T13:07:35;6.10;;;1.48;;
69534;SDS011;56754;51.568;5.048;2023-03-23T13:10:12;6.07;;;1.33;;
69534;SDS011;56754;51.568;5.048;2023-03-23T13:12:44;7.90;;;1.60;;
69534;SDS011;56754;51.568;5.048;2023-03-23T13:17:48;5.72;;;1.38;;
69534;SDS011;56754;51.568;5.048;2023-03-23T13:28:22;6.43;;;1.15;;
69534;SDS011;56754;51.568;5.048;2023-03-23T13:30:54;6.97;;;1.17;;
69534;SDS011;56754;51.568;5.048;2023-03-23T13:33:22;10.53;;;1.40;;
69534;SDS011;56754;51.568;5.048;2023-03-23T13:35:48;7.40;;;1.65;;
69534;SDS011;56754;51.568;5.048;2023-03-23T13:38:19;8.63;;;1.40;;
69534;SDS011;56754;51.568;5.048;2023-03-23T13:40:52;7.75;;;1.50;;
69534;SDS011;56754;51.568;5.048;2023-03-23T13:43:28;6.77;;;1.50;;
69534;SDS011;56754;51.568;5.048;2023-03-23T13:46:08;6.03;;;1.35;;
69534;SDS011;56754;51.568;5.048;2023-03-23T13:48:41;7.53;;;1.52;;
69534;SDS011;56754;51.568;5.048;2023-03-23T13:54:04;7.22;;;1.48;;
69534;SDS011;56754;51.568;5.048;2023-03-23T13:59:16;7.38;;;1.65;;
69534;SDS011;56754;51.568;5.048;2023-03-23T14:01:56;6.05;;;1.30;;
69534;SDS011;56754;51.568;5.048;2023-03-23T14:04:42;6.15;;;1.38;;
69534;SDS011;56754;51.568;5.048;2023-03-23T14:07:16;8.15;;;1.80;;
69534;SDS011;56754;51.568;5.048;2023-03-23T14:09:42;6.20;;;1.47;;
69534;SDS011;56754;51.568;5.048;2023-03-23T14:12:15;6.97;;;1.60;;
69534;SDS011;56754;51.568;5.048;2023-03-23T14:14:47;9.43;;;1.65;;
69534;SDS011;56754;51.568;5.048;2023-03-23T14:17:19;5.28;;;1.10;;
69534;SDS011;56754;51.568;5.048;2023-03-23T14:19:49;5.53;;;1.10;;
69534;SDS011;56754;51.568;5.048;2023-03-23T14:25:15;7.38;;;1.15;;
69534;SDS011;56754;51.568;5.048;2023-03-23T14:27:42;6.75;;;0.88;;
69534;SDS011;56754;51.568;5.048;2023-03-23T14:30:12;7.57;;;1.45;;
69534;SDS011;56754;51.568;5.048;2023-03-23T14:32:39;5.10;;;1.08;;
69534;SDS011;56754;51.568;5.048;2023-03-23T14:35:06;5.93;;;1.20;;
69534;SDS011;56754;51.568;5.048;2023-03-23T14:37:37;5.60;;;1.15;;
69534;SDS011;56754;51.568;5.048;2023-03-23T14:40:03;5.00;;;1.13;;
69534;SDS011;56754;51.568;5.048;2023-03-23T14:42:29;5.45;;;1.15;;
69534;SDS011;56754;51.568;5.048;2023-03-23T14:44:56;6.35;;;1.17;;
69534;SDS011;56754;51.568;5.048;2023-03-23T14:47:28;5.45;;;1.13;;
69534;SDS011;56754;51.568;5.048;2023-03-23T14:49:58;4.60;;;1.02;;
69534;SDS011;56754;51.568;5.048;2023-03-23T14:52:26;6.23;;;1.20;;
69534;SDS011;56754;51.568;5.048;2023-03-23T14:55:10;5.53;;;1.20;;
69534;SDS011;56754;51.568;5.048;2023-03-23T14:57:39;6.57;;;1.30;;
69534;SDS011;56754;51.568;5.048;2023-03-23T15:00:10;7.00;;;1.50;;
69534;SDS011;56754;51.568;5.048;2023-03-23T15:02:38;7.78;;;1.23;;
69534;SDS011;56754;51.568;5.048;2023-03-23T15:05:08;4.77;;;1.20;;
69534;SDS011;56754;51.568;5.048;2023-03-23T15:07:38;6.22;;;1.20;;
69534;SDS011;56754;51.568;5.048;2023-03-23T15:10:06;5.05;;;1.25;;
69534;SDS011;56754;51.568;5.048;2023-03-23T15:12:33;6.25;;;1.17;;
69534;SDS011;56754;51.568;5.048;2023-03-23T15:15:00;5.18;;;1.08;;
69534;SDS011;56754;51.568;5.048;2023-03-23T15:17:28;5.50;;;1.17;;
69534;SDS011;56754;51.568;5.048;2023-03-23T15:19:55;5.63;;;1.30;;
69534;SDS011;56754;51.568;5.048;2023-03-23T15:24:52;6.13;;;1.15;;
69534;SDS011;56754;51.568;5.048;2023-03-23T15:27:33;4.95;;;0.90;;
69534;SDS011;56754;51.568;5.048;2023-03-23T15:32:47;6.05;;;0.93;;
69534;SDS011;56754;51.568;5.048;2023-03-23T15:35:17;5.50;;;1.20;;
69534;SDS011;56754;51.568;5.048;2023-03-23T15:37:47;6.25;;;1.10;;
69534;SDS011;56754;51.568;5.048;2023-03-23T15:40:16;4.43;;;0.90;;
69534;SDS011;56754;51.568;5.048;2023-03-23T15:42:43;7.30;;;1.07;;
69534;SDS011;56754;51.568;5.048;2023-03-23T15:47:36;7.30;;;1.10;;
69534;SDS011;56754;51.568;5.048;2023-03-23T15:52:41;5.45;;;1.00;;
69534;SDS011;56754;51.568;5.048;2023-03-23T15:58:10;5.30;;;1.13;;
69534;SDS011;56754;51.568;5.048;2023-03-23T16:00:36;6.03;;;1.20;;
69534;SDS011;56754;51.568;5.048;2023-03-23T16:03:04;4.38;;;0.77;;
69534;SDS011;56754;51.568;5.048;2023-03-23T16:05:31;5.20;;;0.82;;
69534;SDS011;56754;51.568;5.048;2023-03-23T16:07:57;5.33;;;1.03;;
69534;SDS011;56754;51.568;5.048;2023-03-23T16:10:23;6.85;;;1.15;;
69534;SDS011;56754;51.568;5.048;2023-03-23T16:12:50;5.40;;;0.80;;
69534;SDS011;56754;51.568;5.048;2023-03-23T16:15:15;3.88;;;0.70;;
69534;SDS011;56754;51.568;5.048;2023-03-23T16:17:41;7.03;;;1.07;;
69534;SDS011;56754;51.568;5.048;2023-03-23T16:20:11;4.65;;;0.95;;
69534;SDS011;56754;51.568;5.048;2023-03-23T16:22:38;4.07;;;0.90;;
69534;SDS011;56754;51.568;5.048;2023-03-23T16:25:03;3.40;;;0.73;;
69534;SDS011;56754;51.568;5.048;2023-03-23T16:27:29;4.63;;;0.80;;
69534;SDS011;56754;51.568;5.048;2023-03-23T16:29:54;4.77;;;0.80;;
69534;SDS011;56754;51.568;5.048;2023-03-23T16:32:20;5.30;;;0.97;;
69534;SDS011;56754;51.568;5.048;2023-03-23T16:34:45;4.53;;;0.90;;
69534;SDS011;56754;51.568;5.048;2023-03-23T16:37:10;4.70;;;0.83;;
69534;SDS011;56754;51.568;5.048;2023-03-23T16:39:35;4.50;;;1.17;;
69534;SDS011;56754;51.568;5.048;2023-03-23T16:42:01;4.65;;;0.85;;
69534;SDS011;56754;51.568;5.048;2023-03-23T16:44:26;4.43;;;0.87;;
69534;SDS011;56754;51.568;5.048;2023-03-23T16:46:52;3.93;;;0.70;;
69534;SDS011;56754;51.568;5.048;2023-03-23T16:49:17;4.70;;;0.70;;
69534;SDS011;56754;51.568;5.048;2023-03-23T16:51:42;5.23;;;0.87;;
69534;SDS011;56754;51.568;5.048;2023-03-23T16:54:07;4.43;;;0.73;;
69534;SDS011;56754;51.568;5.048;2023-03-23T16:56:33;3.03;;;0.60;;
69534;SDS011;56754;51.568;5.048;2023-03-23T16:58:58;4.50;;;0.80;;
69534;SDS011;56754;51.568;5.048;2023-03-23T17:01:23;5.00;;;0.80;;